sensor_id;sensor_type;location;lat;lon;timestamp;pressure;altitude;pressure_sealevel;temperature;humidity
63019;BME280;49105;46.046;10.760;2023-03-03T00:02:24;95632.88;;;3.51;70.65
63019;BME280;49105;46.046;10.760;2023-03-03T00:04:59;95636.81;;;3.41;70.63
63019;BME280;49105;46.046;10.760;2023-03-03T00:07:34;95625.81;;;3.39;70.73
63019;BME280;49105;46.046;10.760;2023-03-03T00:10:03;95624.56;;;3.42;70.75
63019;BME280;49105;46.046;10.760;2023-03-03T00:12:29;95633.06;;;3.37;70.92
63019;BME280;49105;46.046;10.760;2023-03-03T00:15:25;95629.00;;;3.30;70.90
63019;BME280;49105;46.046;10.760;2023-03-03T00:17:52;95624.56;;;3.30;70.77
63019;BME280;49105;46.046;10.760;2023-03-03T00:20:38;95627.06;;;3.25;70.76
63019;BME280;49105;46.046;10.760;2023-03-03T00:23:25;95622.28;;;3.22;70.97
63019;BME280;49105;46.046;10.760;2023-03-03T00:25:53;95628.53;;;3.21;70.87
63019;BME280;49105;46.046;10.760;2023-03-03T00:28:42;95620.00;;;3.14;71.13
63019;BME280;49105;46.046;10.760;2023-03-03T00:31:34;95623.16;;;3.16;70.98
63019;BME280;49105;46.046;10.760;2023-03-03T00:34:25;95622.00;;;3.12;70.84
63019;BME280;49105;46.046;10.760;2023-03-03T00:36:55;95620.88;;;3.08;70.68
63019;BME280;49105;46.046;10.760;2023-03-03T00:39:30;95619.28;;;3.07;71.00
63019;BME280;49105;46.046;10.760;2023-03-03T00:41:57;95620.75;;;3.03;70.90
63019;BME280;49105;46.046;10.760;2023-03-03T00:55:32;95625.88;;;2.97;70.79
63019;BME280;49105;46.046;10.760;2023-03-03T00:58:03;95621.88;;;2.95;71.00
63019;BME280;49105;46.046;10.760;2023-03-03T01:00:29;95622.91;;;2.94;70.83
63019;BME280;49105;46.046;10.760;2023-03-03T01:03:12;95625.97;;;2.91;71.08
63019;BME280;49105;46.046;10.760;2023-03-03T01:05:41;95624.38;;;2.90;71.18
63019;BME280;49105;46.046;10.760;2023-03-03T01:11:28;95624.03;;;2.86;71.07
63019;BME280;49105;46.046;10.760;2023-03-03T01:13:55;95624.34;;;2.78;71.16
63019;BME280;49105;46.046;10.760;2023-03-03T01:16:20;95623.78;;;2.76;71.23
63019;BME280;49105;46.046;10.760;2023-03-03T01:18:58;95612.50;;;2.76;71.41
63019;BME280;49105;46.046;10.760;2023-03-03T01:21:23;95621.56;;;2.61;71.28
63019;BME280;49105;46.046;10.760;2023-03-03T01:23:58;95619.19;;;2.60;71.56
63019;BME280;49105;46.046;10.760;2023-03-03T01:26:29;95619.88;;;2.55;71.41
63019;BME280;49105;46.046;10.760;2023-03-03T01:29:04;95619.19;;;2.60;71.62
63019;BME280;49105;46.046;10.760;2023-03-03T01:31:34;95620.41;;;2.57;71.18
63019;BME280;49105;46.046;10.760;2023-03-03T01:34:06;95616.34;;;2.61;71.23
63019;BME280;49105;46.046;10.760;2023-03-03T01:36:37;95619.31;;;2.65;70.84
63019;BME280;49105;46.046;10.760;2023-03-03T01:39:12;95610.22;;;2.67;70.97
63019;BME280;49105;46.046;10.760;2023-03-03T01:41:47;95607.28;;;2.64;71.07
63019;BME280;49105;46.046;10.760;2023-03-03T01:44:21;95604.06;;;2.62;70.64
63019;BME280;49105;46.046;10.760;2023-03-03T01:46:52;95613.97;;;2.60;70.91
63019;BME280;49105;46.046;10.760;2023-03-03T01:49:26;95602.72;;;2.59;71.25
63019;BME280;49105;46.046;10.760;2023-03-03T01:52:00;95597.94;;;2.56;71.30
63019;BME280;49105;46.046;10.760;2023-03-03T01:54:41;95600.44;;;2.63;70.99
63019;BME280;49105;46.046;10.760;2023-03-03T01:57:15;95596.00;;;2.63;70.58
63019;BME280;49105;46.046;10.760;2023-03-03T01:59:47;95594.28;;;2.57;71.05
63019;BME280;49105;46.046;10.760;2023-03-03T02:02:14;95594.72;;;2.54;71.09
63019;BME280;49105;46.046;10.760;2023-03-03T02:04:40;95594.50;;;2.44;71.16
63019;BME280;49105;46.046;10.760;2023-03-03T02:07:13;95593.53;;;2.27;71.42
63019;BME280;49105;46.046;10.760;2023-03-03T02:12:27;95586.69;;;2.26;71.58
63019;BME280;49105;46.046;10.760;2023-03-03T02:15:07;95586.25;;;2.29;71.26
63019;BME280;49105;46.046;10.760;2023-03-03T02:17:42;95584.66;;;2.28;71.48
63019;BME280;49105;46.046;10.760;2023-03-03T02:23:06;95585.31;;;2.23;70.99
63019;BME280;49105;46.046;10.760;2023-03-03T02:26:10;95577.94;;;2.20;70.99
63019;BME280;49105;46.046;10.760;2023-03-03T02:28:38;95575.09;;;2.21;71.28
63019;BME280;49105;46.046;10.760;2023-03-03T02:31:16;95578.50;;;2.22;71.52
63019;BME280;49105;46.046;10.760;2023-03-03T02:33:47;95575.88;;;2.22;71.46
63019;BME280;49105;46.046;10.760;2023-03-03T02:36:18;95574.28;;;2.21;71.32
63019;BME280;49105;46.046;10.760;2023-03-03T02:44:24;95575.09;;;2.21;70.98
63019;BME280;49105;46.046;10.760;2023-03-03T02:46:51;95574.41;;;2.14;71.43
63019;BME280;49105;46.046;10.760;2023-03-03T02:49:29;95570.41;;;2.12;71.58
63019;BME280;49105;46.046;10.760;2023-03-03T02:52:00;95569.97;;;2.15;71.17
63019;BME280;49105;46.046;10.760;2023-03-03T02:54:31;95569.50;;;2.18;71.04
63019;BME280;49105;46.046;10.760;2023-03-03T02:56:58;95573.56;;;2.14;70.89
63019;BME280;49105;46.046;10.760;2023-03-03T02:59:23;95565.97;;;2.12;71.13
63019;BME280;49105;46.046;10.760;2023-03-03T03:01:51;95569.59;;;2.11;71.33
63019;BME280;49105;46.046;10.760;2023-03-03T03:04:19;95565.53;;;2.15;71.43
63019;BME280;49105;46.046;10.760;2023-03-03T03:06:45;95561.66;;;2.18;71.21
63019;BME280;49105;46.046;10.760;2023-03-03T03:09:21;95555.09;;;2.15;70.93
63019;BME280;49105;46.046;10.760;2023-03-03T03:11:53;95557.66;;;2.04;71.37
63019;BME280;49105;46.046;10.760;2023-03-03T03:14:19;95558.84;;;1.89;71.66
63019;BME280;49105;46.046;10.760;2023-03-03T03:16:50;95546.22;;;1.86;71.57
63019;BME280;49105;46.046;10.760;2023-03-03T03:19:22;95548.97;;;1.91;71.75
63019;BME280;49105;46.046;10.760;2023-03-03T03:21:47;95553.31;;;1.97;71.73
63019;BME280;49105;46.046;10.760;2023-03-03T03:24:16;95546.06;;;1.99;71.14
63019;BME280;49105;46.046;10.760;2023-03-03T03:26:42;95549.91;;;1.97;71.38
63019;BME280;49105;46.046;10.760;2023-03-03T03:29:16;95552.50;;;1.97;71.14
63019;BME280;49105;46.046;10.760;2023-03-03T03:31:51;95548.06;;;1.97;71.11
63019;BME280;49105;46.046;10.760;2023-03-03T03:34:22;95556.38;;;1.94;71.11
63019;BME280;49105;46.046;10.760;2023-03-03T03:37:00;95547.50;;;1.95;71.60
63019;BME280;49105;46.046;10.760;2023-03-03T03:39:25;95553.47;;;1.84;71.40
63019;BME280;49105;46.046;10.760;2023-03-03T03:42:00;95552.47;;;1.67;71.39
63019;BME280;49105;46.046;10.760;2023-03-03T03:44:34;95549.31;;;1.65;71.89
63019;BME280;49105;46.046;10.760;2023-03-03T03:47:09;95556.09;;;1.66;71.70
63019;BME280;49105;46.046;10.760;2023-03-03T03:49:43;95546.22;;;1.68;72.18
63019;BME280;49105;46.046;10.760;2023-03-03T03:52:18;95552.03;;;1.70;71.64
63019;BME280;49105;46.046;10.760;2023-03-03T03:54:49;95551.63;;;1.73;71.41
63019;BME280;49105;46.046;10.760;2023-03-03T03:57:15;95547.38;;;1.72;71.44
63019;BME280;49105;46.046;10.760;2023-03-03T03:59:43;95537.84;;;1.66;71.65
63019;BME280;49105;46.046;10.760;2023-03-03T04:02:21;95545.66;;;1.66;71.54
63019;BME280;49105;46.046;10.760;2023-03-03T04:04:46;95537.84;;;1.66;71.18
63019;BME280;49105;46.046;10.760;2023-03-03T04:07:13;95539.44;;;1.67;71.61
63019;BME280;49105;46.046;10.760;2023-03-03T04:09:48;95538.41;;;1.68;71.64
63019;BME280;49105;46.046;10.760;2023-03-03T04:12:13;95542.69;;;1.62;71.24
63019;BME280;49105;46.046;10.760;2023-03-03T04:14:39;95535.31;;;1.59;71.58
63019;BME280;49105;46.046;10.760;2023-03-03T04:17:18;95535.31;;;1.59;71.72
63019;BME280;49105;46.046;10.760;2023-03-03T04:19:52;95534.28;;;1.60;71.24
63019;BME280;49105;46.046;10.760;2023-03-03T04:25:39;95534.63;;;1.64;70.98
63019;BME280;49105;46.046;10.760;2023-03-03T04:28:16;95531.47;;;1.62;71.82
63019;BME280;49105;46.046;10.760;2023-03-03T04:30:51;95536.31;;;1.58;71.50
63019;BME280;49105;46.046;10.760;2023-03-03T04:33:17;95529.72;;;1.56;71.30
63019;BME280;49105;46.046;10.760;2023-03-03T04:35:51;95527.91;;;1.56;71.21
63019;BME280;49105;46.046;10.760;2023-03-03T04:38:23;95525.09;;;1.58;71.32
63019;BME280;49105;46.046;10.760;2023-03-03T04:40:57;95528.88;;;1.62;71.53
63019;BME280;49105;46.046;10.760;2023-03-03T04:43:30;95529.28;;;1.59;71.01
63019;BME280;49105;46.046;10.760;2023-03-03T04:45:58;95520.81;;;1.63;71.16
63019;BME280;49105;46.046;10.760;2023-03-03T04:48:27;95526.91;;;1.57;71.09
63019;BME280;49105;46.046;10.760;2023-03-03T04:50:58;95531.97;;;1.52;71.25
63019;BME280;49105;46.046;10.760;2023-03-03T04:53:33;95524.22;;;1.45;71.34
63019;BME280;49105;46.046;10.760;2023-03-03T04:56:06;95530.31;;;1.39;71.25
63019;BME280;49105;46.046;10.760;2023-03-03T04:58:44;95531.75;;;1.35;71.86
63019;BME280;49105;46.046;10.760;2023-03-03T05:01:18;95534.94;;;1.37;71.11
63019;BME280;49105;46.046;10.760;2023-03-03T05:03:50;95533.56;;;1.35;71.80
63019;BME280;49105;46.046;10.760;2023-03-03T05:06:21;95533.56;;;1.35;71.60
63019;BME280;49105;46.046;10.760;2023-03-03T05:08:56;95531.88;;;1.22;71.23
63019;BME280;49105;46.046;10.760;2023-03-03T05:11:21;95536.38;;;1.15;71.79
63019;BME280;49105;46.046;10.760;2023-03-03T05:13:53;95529.78;;;1.12;71.98
63019;BME280;49105;46.046;10.760;2023-03-03T05:16:18;95527.56;;;1.16;71.89
63019;BME280;49105;46.046;10.760;2023-03-03T05:18:53;95525.31;;;1.19;71.92
63019;BME280;49105;46.046;10.760;2023-03-03T05:21:18;95535.22;;;1.29;71.43
63019;BME280;49105;46.046;10.760;2023-03-03T05:23:53;95531.53;;;1.37;71.63
63019;BME280;49105;46.046;10.760;2023-03-03T05:26:18;95530.75;;;1.36;71.13
63019;BME280;49105;46.046;10.760;2023-03-03T05:28:44;95532.84;;;1.28;71.46
63019;BME280;49105;46.046;10.760;2023-03-03T05:31:18;95536.69;;;1.25;71.24
63019;BME280;49105;46.046;10.760;2023-03-03T05:33:44;95536.25;;;1.28;71.90
63019;BME280;49105;46.046;10.760;2023-03-03T05:36:12;95539.44;;;1.30;71.69
63019;BME280;49105;46.046;10.760;2023-03-03T05:38:44;95540.03;;;1.32;71.25
63019;BME280;49105;46.046;10.760;2023-03-03T05:41:15;95541.00;;;1.31;71.60
63019;BME280;49105;46.046;10.760;2023-03-03T05:43:41;95543.34;;;1.21;71.12
63019;BME280;49105;46.046;10.760;2023-03-03T05:46:07;95540.59;;;1.16;71.12
63019;BME280;49105;46.046;10.760;2023-03-03T05:48:39;95536.81;;;1.12;71.72
63019;BME280;49105;46.046;10.760;2023-03-03T05:51:04;95546.44;;;1.11;71.28
63019;BME280;49105;46.046;10.760;2023-03-03T05:53:39;95538.69;;;1.23;71.41
63019;BME280;49105;46.046;10.760;2023-03-03T05:56:14;95531.59;;;1.30;71.42
63019;BME280;49105;46.046;10.760;2023-03-03T06:02:10;95540.88;;;1.26;71.32
63019;BME280;49105;46.046;10.760;2023-03-03T06:04:43;95540.06;;;1.26;71.55
63019;BME280;49105;46.046;10.760;2023-03-03T06:07:09;95543.13;;;1.22;71.59
63019;BME280;49105;46.046;10.760;2023-03-03T06:09:34;95547.25;;;1.12;71.42
63019;BME280;49105;46.046;10.760;2023-03-03T06:12:07;95546.88;;;1.08;71.99
63019;BME280;49105;46.046;10.760;2023-03-03T06:14:38;95548.31;;;1.04;71.88
63019;BME280;49105;46.046;10.760;2023-03-03T06:17:04;95545.91;;;1.03;71.40
63019;BME280;49105;46.046;10.760;2023-03-03T06:19:39;95555.16;;;0.98;71.73
63019;BME280;49105;46.046;10.760;2023-03-03T06:22:07;95545.91;;;1.03;72.28
63019;BME280;49105;46.046;10.760;2023-03-03T06:24:33;95562.28;;;1.10;72.06
63019;BME280;49105;46.046;10.760;2023-03-03T06:26:59;95554.84;;;1.13;71.76
63019;BME280;49105;46.046;10.760;2023-03-03T06:29:25;95557.94;;;1.04;71.69
63019;BME280;49105;46.046;10.760;2023-03-03T06:31:57;95555.53;;;1.02;71.72
63019;BME280;49105;46.046;10.760;2023-03-03T06:34:22;95557.06;;;1.10;71.95
63019;BME280;49105;46.046;10.760;2023-03-03T06:36:48;95557.66;;;1.12;71.52
63019;BME280;49105;46.046;10.760;2023-03-03T06:39:19;95559.22;;;1.19;71.96
63019;BME280;49105;46.046;10.760;2023-03-03T06:41:45;95565.13;;;1.27;71.91
63019;BME280;49105;46.046;10.760;2023-03-03T06:44:10;95559.78;;;1.21;71.43
63019;BME280;49105;46.046;10.760;2023-03-03T06:46:39;95566.16;;;1.26;71.33
63019;BME280;49105;46.046;10.760;2023-03-03T06:49:13;95565.28;;;1.32;71.42
63019;BME280;49105;46.046;10.760;2023-03-03T06:51:45;95566.94;;;1.26;71.69
63019;BME280;49105;46.046;10.760;2023-03-03T06:54:19;95570.84;;;1.17;71.54
63019;BME280;49105;46.046;10.760;2023-03-03T06:56:48;95568.50;;;1.09;72.14
63019;BME280;49105;46.046;10.760;2023-03-03T06:59:27;95568.66;;;1.14;72.22
63019;BME280;49105;46.046;10.760;2023-03-03T07:01:53;95570.78;;;1.23;72.24
63019;BME280;49105;46.046;10.760;2023-03-03T07:04:37;95573.97;;;1.26;71.58
63019;BME280;49105;46.046;10.760;2023-03-03T07:07:14;95576.44;;;1.20;71.62
63019;BME280;49105;46.046;10.760;2023-03-03T07:09:43;95569.91;;;1.30;72.30
63019;BME280;49105;46.046;10.760;2023-03-03T07:12:12;95573.69;;;1.34;71.77
63019;BME280;49105;46.046;10.760;2023-03-03T07:14:48;95585.06;;;1.39;71.91
63019;BME280;49105;46.046;10.760;2023-03-03T07:17:20;95577.19;;;1.46;71.78
63019;BME280;49105;46.046;10.760;2023-03-03T07:19:48;95587.38;;;1.47;71.62
63019;BME280;49105;46.046;10.760;2023-03-03T07:22:24;95588.91;;;1.55;71.34
63019;BME280;49105;46.046;10.760;2023-03-03T07:25:05;95590.16;;;1.71;71.53
63019;BME280;49105;46.046;10.760;2023-03-03T07:27:37;95586.53;;;1.90;71.13
63019;BME280;49105;46.046;10.760;2023-03-03T07:32:54;95587.59;;;2.01;70.75
63019;BME280;49105;46.046;10.760;2023-03-03T07:37:58;95589.59;;;2.17;70.88
63019;BME280;49105;46.046;10.760;2023-03-03T07:40:37;95586.00;;;2.18;71.20
63019;BME280;49105;46.046;10.760;2023-03-03T07:46:19;95584.19;;;2.19;71.15
63019;BME280;49105;46.046;10.760;2023-03-03T07:48:50;95585.03;;;2.31;70.96
63019;BME280;49105;46.046;10.760;2023-03-03T07:56:41;95571.91;;;2.49;70.99
63019;BME280;49105;46.046;10.760;2023-03-03T07:59:24;95574.63;;;2.55;71.04
63019;BME280;49105;46.046;10.760;2023-03-03T08:01:56;95578.66;;;2.69;70.91
63019;BME280;49105;46.046;10.760;2023-03-03T08:04:41;95575.03;;;2.82;70.77
63019;BME280;49105;46.046;10.760;2023-03-03T08:07:25;95578.13;;;2.90;70.50
63019;BME280;49105;46.046;10.760;2023-03-03T08:12:23;95576.56;;;3.01;70.63
63019;BME280;49105;46.046;10.760;2023-03-03T08:14:53;95570.63;;;3.06;70.51
63019;BME280;49105;46.046;10.760;2023-03-03T08:17:22;95577.22;;;3.20;70.47
63019;BME280;49105;46.046;10.760;2023-03-03T08:19:57;95573.25;;;3.29;70.22
63019;BME280;49105;46.046;10.760;2023-03-03T08:22:34;95581.31;;;3.39;70.27
63019;BME280;49105;46.046;10.760;2023-03-03T08:25:08;95576.88;;;3.40;70.38
63019;BME280;49105;46.046;10.760;2023-03-03T08:27:39;95572.91;;;3.37;70.04
63019;BME280;49105;46.046;10.760;2023-03-03T08:30:17;95568.69;;;3.36;70.06
63019;BME280;49105;46.046;10.760;2023-03-03T08:32:52;95574.84;;;3.42;70.13
63019;BME280;49105;46.046;10.760;2023-03-03T08:35:24;95571.75;;;3.57;70.24
63019;BME280;49105;46.046;10.760;2023-03-03T08:37:52;95566.06;;;3.71;69.91
63019;BME280;49105;46.046;10.760;2023-03-03T08:40:18;95568.09;;;3.69;69.86
63019;BME280;49105;46.046;10.760;2023-03-03T08:42:49;95570.94;;;3.68;69.99
63019;BME280;49105;46.046;10.760;2023-03-03T08:45:15;95565.34;;;3.76;70.11
63019;BME280;49105;46.046;10.760;2023-03-03T08:47:40;95567.94;;;3.88;69.82
63019;BME280;49105;46.046;10.760;2023-03-03T08:50:17;95565.31;;;4.00;70.05
63019;BME280;49105;46.046;10.760;2023-03-03T08:52:49;95571.59;;;4.15;69.72
63019;BME280;49105;46.046;10.760;2023-03-03T08:55:14;95565.78;;;4.25;69.42
63019;BME280;49105;46.046;10.760;2023-03-03T08:57:40;95560.63;;;4.30;69.08
63019;BME280;49105;46.046;10.760;2023-03-03T09:00:14;95558.09;;;4.35;69.20
63019;BME280;49105;46.046;10.760;2023-03-03T09:02:39;95564.44;;;4.39;69.27
63019;BME280;49105;46.046;10.760;2023-03-03T09:05:06;95557.50;;;4.45;68.92
63019;BME280;49105;46.046;10.760;2023-03-03T09:07:32;95565.78;;;4.54;69.17
63019;BME280;49105;46.046;10.760;2023-03-03T09:10:04;95562.44;;;4.58;68.90
63019;BME280;49105;46.046;10.760;2023-03-03T09:15:51;95564.41;;;4.68;68.82
63019;BME280;49105;46.046;10.760;2023-03-03T09:18:26;95561.34;;;4.71;68.90
63019;BME280;49105;46.046;10.760;2023-03-03T09:20:57;95562.78;;;4.79;68.50
63019;BME280;49105;46.046;10.760;2023-03-03T09:23:37;95556.88;;;4.88;68.68
63019;BME280;49105;46.046;10.760;2023-03-03T09:28:58;95548.28;;;5.10;68.64
63019;BME280;49105;46.046;10.760;2023-03-03T09:31:38;95548.53;;;5.25;68.34
63019;BME280;49105;46.046;10.760;2023-03-03T09:34:23;95546.34;;;5.39;68.16
63019;BME280;49105;46.046;10.760;2023-03-03T09:36:54;95552.22;;;5.46;68.09
63019;BME280;49105;46.046;10.760;2023-03-03T09:39:27;95547.03;;;5.51;67.97
63019;BME280;49105;46.046;10.760;2023-03-03T09:48:08;95523.94;;;5.92;67.08
63019;BME280;49105;46.046;10.760;2023-03-03T09:51:01;95529.88;;;6.04;67.03
63019;BME280;49105;46.046;10.760;2023-03-03T09:56:10;95529.41;;;6.34;67.02
63019;BME280;49105;46.046;10.760;2023-03-03T10:04:47;95520.81;;;6.71;65.71
63019;BME280;49105;46.046;10.760;2023-03-03T10:17:53;95509.19;;;7.41;64.99
63019;BME280;49105;46.046;10.760;2023-03-03T10:20:53;95506.59;;;7.52;64.90
63019;BME280;49105;46.046;10.760;2023-03-03T10:23:19;95500.06;;;7.64;64.26
63019;BME280;49105;46.046;10.760;2023-03-03T10:25:53;95495.63;;;7.75;64.45
63019;BME280;49105;46.046;10.760;2023-03-03T10:42:42;95489.66;;;8.00;63.26
63019;BME280;49105;46.046;10.760;2023-03-03T10:59:59;95472.38;;;8.45;62.17
63019;BME280;49105;46.046;10.760;2023-03-03T11:05:57;95477.13;;;8.53;62.00
63019;BME280;49105;46.046;10.760;2023-03-03T11:08:46;95465.78;;;8.58;61.99
63019;BME280;49105;46.046;10.760;2023-03-03T11:11:32;95466.84;;;8.67;61.72
63019;BME280;49105;46.046;10.760;2023-03-03T11:16:59;95465.25;;;8.91;61.65
63019;BME280;49105;46.046;10.760;2023-03-03T11:19:45;95464.19;;;9.03;61.20
63019;BME280;49105;46.046;10.760;2023-03-03T11:33:30;95447.72;;;9.41;60.85
63019;BME280;49105;46.046;10.760;2023-03-03T11:41:28;95428.59;;;9.70;60.10
63019;BME280;49105;46.046;10.760;2023-03-03T11:47:26;95420.09;;;9.78;59.84
63019;BME280;49105;46.046;10.760;2023-03-03T11:50:07;95428.56;;;9.80;59.52
63019;BME280;49105;46.046;10.760;2023-03-03T11:53:37;95414.25;;;9.81;59.90
63019;BME280;49105;46.046;10.760;2023-03-03T11:55:47;95413.16;;;9.87;59.36
63019;BME280;49105;46.046;10.760;2023-03-03T11:58:24;95413.94;;;9.93;59.38
63019;BME280;49105;46.046;10.760;2023-03-03T12:06:22;95394.00;;;10.11;59.05
63019;BME280;49105;46.046;10.760;2023-03-03T12:17:00;95395.88;;;10.50;58.19
63019;BME280;49105;46.046;10.760;2023-03-03T12:28:19;95373.91;;;11.02;52.51
63019;BME280;49105;46.046;10.760;2023-03-03T12:41:14;95363.38;;;11.21;50.23
63019;BME280;49105;46.046;10.760;2023-03-03T12:46:50;95369.25;;;11.18;45.05
63019;BME280;49105;46.046;10.760;2023-03-03T12:55:41;95357.06;;;11.41;45.81
63019;BME280;49105;46.046;10.760;2023-03-03T12:58:15;95354.66;;;11.39;44.71
63019;BME280;49105;46.046;10.760;2023-03-03T13:06:35;95349.22;;;11.31;42.45
63019;BME280;49105;46.046;10.760;2023-03-03T13:14:55;95347.09;;;11.52;42.62
63019;BME280;49105;46.046;10.760;2023-03-03T13:20:01;95340.38;;;11.59;41.82
63019;BME280;49105;46.046;10.760;2023-03-03T13:27:55;95336.88;;;11.64;40.89
63019;BME280;49105;46.046;10.760;2023-03-03T13:30:34;95339.69;;;11.73;40.86
63019;BME280;49105;46.046;10.760;2023-03-03T13:33:16;95343.00;;;11.83;40.66
63019;BME280;49105;46.046;10.760;2023-03-03T13:35:55;95339.13;;;11.95;41.52
63019;BME280;49105;46.046;10.760;2023-03-03T13:38:29;95347.56;;;11.97;41.73
63019;BME280;49105;46.046;10.760;2023-03-03T13:41:13;95339.56;;;12.02;41.61
63019;BME280;49105;46.046;10.760;2023-03-03T13:44:03;95332.09;;;12.04;40.84
63019;BME280;49105;46.046;10.760;2023-03-03T13:49:20;95323.66;;;12.02;40.49
63019;BME280;49105;46.046;10.760;2023-03-03T14:01:11;95320.34;;;11.91;40.28
63019;BME280;49105;46.046;10.760;2023-03-03T14:04:16;95320.44;;;11.86;40.57
63019;BME280;49105;46.046;10.760;2023-03-03T14:07:05;95320.06;;;11.92;40.90
63019;BME280;49105;46.046;10.760;2023-03-03T14:15:43;95314.69;;;11.98;41.34
63019;BME280;49105;46.046;10.760;2023-03-03T14:17:54;95321.47;;;12.04;41.06
63019;BME280;49105;46.046;10.760;2023-03-03T14:20:30;95324.69;;;12.01;40.93
63019;BME280;49105;46.046;10.760;2023-03-03T14:23:27;95317.91;;;11.95;41.38
63019;BME280;49105;46.046;10.760;2023-03-03T14:26:08;95322.22;;;11.90;41.55
63019;BME280;49105;46.046;10.760;2023-03-03T14:28:48;95326.13;;;11.93;41.61
63019;BME280;49105;46.046;10.760;2023-03-03T14:31:26;95323.44;;;11.98;41.87
63019;BME280;49105;46.046;10.760;2023-03-03T14:36:48;95323.78;;;11.91;40.76
63019;BME280;49105;46.046;10.760;2023-03-03T14:39:38;95321.28;;;11.81;40.65
63019;BME280;49105;46.046;10.760;2023-03-03T14:42:29;95325.63;;;11.72;41.01
63019;BME280;49105;46.046;10.760;2023-03-03T14:44:55;95331.06;;;11.62;41.36
63019;BME280;49105;46.046;10.760;2023-03-03T14:47:27;95322.97;;;11.53;41.41
63019;BME280;49105;46.046;10.760;2023-03-03T14:49:56;95335.50;;;11.48;41.46
63019;BME280;49105;46.046;10.760;2023-03-03T14:52:29;95334.47;;;11.43;41.35
63019;BME280;49105;46.046;10.760;2023-03-03T14:55:29;95333.47;;;11.39;41.38
63019;BME280;49105;46.046;10.760;2023-03-03T14:57:57;95337.75;;;11.35;41.74
63019;BME280;49105;46.046;10.760;2023-03-03T15:00:33;95327.53;;;11.29;41.71
63019;BME280;49105;46.046;10.760;2023-03-03T15:03:21;95329.97;;;11.25;42.11
63019;BME280;49105;46.046;10.760;2023-03-03T15:05:54;95332.38;;;11.22;42.50
63019;BME280;49105;46.046;10.760;2023-03-03T15:08:40;95330.03;;;11.20;42.63
63019;BME280;49105;46.046;10.760;2023-03-03T15:11:31;95325.84;;;11.14;42.56
63019;BME280;49105;46.046;10.760;2023-03-03T15:16:52;95322.81;;;11.02;42.99
63019;BME280;49105;46.046;10.760;2023-03-03T15:19:36;95324.44;;;10.98;43.03
63019;BME280;49105;46.046;10.760;2023-03-03T15:22:08;95326.06;;;10.93;43.28
63019;BME280;49105;46.046;10.760;2023-03-03T15:24:56;95326.66;;;10.90;42.90
63019;BME280;49105;46.046;10.760;2023-03-03T15:27:35;95326.38;;;10.92;43.16
63019;BME280;49105;46.046;10.760;2023-03-03T15:30:32;95337.44;;;10.94;43.32
63019;BME280;49105;46.046;10.760;2023-03-03T15:33:24;95332.16;;;10.94;43.58
63019;BME280;49105;46.046;10.760;2023-03-03T15:36:03;95342.53;;;10.90;43.83
63019;BME280;49105;46.046;10.760;2023-03-03T15:38:48;95345.47;;;10.89;44.19
63019;BME280;49105;46.046;10.760;2023-03-03T15:50:27;95354.84;;;10.76;44.68
63019;BME280;49105;46.046;10.760;2023-03-03T15:58:46;95370.31;;;10.64;45.00
63019;BME280;49105;46.046;10.760;2023-03-03T16:03:59;95373.03;;;10.59;45.02
63019;BME280;49105;46.046;10.760;2023-03-03T16:10:10;95375.72;;;10.54;45.58
63019;BME280;49105;46.046;10.760;2023-03-03T16:21:15;95379.63;;;10.27;46.41
63019;BME280;49105;46.046;10.760;2023-03-03T16:23:49;95389.72;;;10.25;46.43
63019;BME280;49105;46.046;10.760;2023-03-03T16:34:57;95395.47;;;9.88;47.04
63019;BME280;49105;46.046;10.760;2023-03-03T16:43:19;95426.50;;;9.62;47.35
63019;BME280;49105;46.046;10.760;2023-03-03T16:45:46;95427.34;;;9.52;47.66
63019;BME280;49105;46.046;10.760;2023-03-03T16:48:41;95430.81;;;9.42;47.97
63019;BME280;49105;46.046;10.760;2023-03-03T16:54:13;95442.25;;;9.23;48.94
63019;BME280;49105;46.046;10.760;2023-03-03T16:59:54;95452.03;;;9.12;49.31
63019;BME280;49105;46.046;10.760;2023-03-03T17:05:35;95460.75;;;9.02;49.24
63019;BME280;49105;46.046;10.760;2023-03-03T17:10:41;95464.19;;;8.92;50.38
63019;BME280;49105;46.046;10.760;2023-03-03T17:19:36;95489.53;;;8.88;50.35
63019;BME280;49105;46.046;10.760;2023-03-03T17:24:54;95485.31;;;8.82;50.21
63019;BME280;49105;46.046;10.760;2023-03-03T17:35:40;95497.97;;;8.60;51.91
63019;BME280;49105;46.046;10.760;2023-03-03T17:46:08;95504.53;;;8.47;52.01
63019;BME280;49105;46.046;10.760;2023-03-03T18:12:03;95547.56;;;7.85;53.77
63019;BME280;49105;46.046;10.760;2023-03-03T18:17:38;95553.59;;;7.70;54.31
63019;BME280;49105;46.046;10.760;2023-03-03T18:20:28;95551.44;;;7.67;54.05
63019;BME280;49105;46.046;10.760;2023-03-03T18:22:55;95556.44;;;7.63;54.10
63019;BME280;49105;46.046;10.760;2023-03-03T18:28:21;95564.56;;;7.57;54.52
63019;BME280;49105;46.046;10.760;2023-03-03T18:33:42;95558.44;;;7.46;54.44
63019;BME280;49105;46.046;10.760;2023-03-03T18:36:13;95562.59;;;7.37;54.65
63019;BME280;49105;46.046;10.760;2023-03-03T18:38:42;95571.78;;;7.29;55.51
63019;BME280;49105;46.046;10.760;2023-03-03T18:41:20;95577.53;;;7.26;55.44
63019;BME280;49105;46.046;10.760;2023-03-03T18:44:01;95579.09;;;7.27;55.25
63019;BME280;49105;46.046;10.760;2023-03-03T18:49:12;95579.56;;;7.19;55.21
63019;BME280;49105;46.046;10.760;2023-03-03T18:51:47;95584.28;;;7.12;55.14
63019;BME280;49105;46.046;10.760;2023-03-03T18:57:35;95597.91;;;7.04;55.46
63019;BME280;49105;46.046;10.760;2023-03-03T19:00:14;95603.66;;;7.01;55.20
63019;BME280;49105;46.046;10.760;2023-03-03T19:02:57;95603.56;;;6.90;55.53
63019;BME280;49105;46.046;10.760;2023-03-03T19:05:50;95620.03;;;6.81;56.09
63019;BME280;49105;46.046;10.760;2023-03-03T19:08:51;95606.63;;;6.82;56.02
63019;BME280;49105;46.046;10.760;2023-03-03T19:11:51;95616.59;;;6.75;56.02
63019;BME280;49105;46.046;10.760;2023-03-03T19:16:55;95620.53;;;6.51;56.36